메인 페이지
METAR-TAF:

METAR-TAF

공항 :

마주로, 마셜 제도

위도: 07-04N, 경도: 171-17E, 고도: 2m

현재 날씨관측

예보는 9 시간 38분 전, 07:52시(UTC)에 발표되었습니다.
5kt
온도 28°C
습도 84%
기압 1010 hPa
시정: 24.1km
고도 1400ft 상공 구름 보통
고도 5000ft 상공 구름 보통
고도 12000ft 상공 구름 많음
고도 30000ft 상공 흐림

METAR: PKMJ 170752Z 10005KT 15SM SCT014 SCT050 BKN120 OVC300 28/25 A2982 RMK LAST

시각: 05:30 (17:30 UTC)

예보

예보는 6 시간 10분 전, 11:20시(UTC)에 발표되었습니다.
예보 대상 시간: 17일 12시부터 18일 12시까지 (UTC)
서남서10kt
시정: 10km
고도 1500ft 상공 구름 보통
고도 4500ft 상공 구름 많음
고도 11000ft 상공 흐림
약한소나기
일시적
17일 14시부터 17일 18시까지 (UTC)
시정: 3.2km
고도 1500ft 상공 구름 많음
고도 4000ft 상공 흐림
소나기
17일 1800시부터 (UTC)
10kt
시정: 10km
고도 1800ft 상공 구름 보통
고도 5000ft 상공 구름 보통
고도 12000ft 상공 구름 많음
시계 내 소나기

TAF: PKMJ 171120Z 1712/1812 24010KT P6SM -SHRA SCT015 BKN045 OVC110 TEMPO 1714/1718 2SM SHRA BKN015 OVC040 FM171800 19010KT P6SM VCSH SCT018 SCT050 BKN120

4,000개 이상의 공항 관측 자료 및 예보 (METAR 및 TAF 보고).

지도상에서 검색 가능한 기상관측소가 노란 점과 빨간 점으로 표시되어 있습니다.

기상관측소 명을 보려면 표시 위로 마우스를 이동하세요.

날씨 관측과 예보를 보려면 클릭하세요.

지도 변경 : 확대하려면 엑스 표시가 있는 녹색 버튼, 축소하려면 빼기 표시가 있는 녹색 버튼, 다음 페이지의 지도를 보려면 녹색 화살표를 클릭하세요.


METAR-TAF: